sensor_id;sensor_type;location;lat;lon;timestamp;P1;durP1;ratioP1;P2;durP2;ratioP2
53903;SDS011;39812;52.430;16.936;2023-08-06T00:00:08;5.22;;;3.65;;
53903;SDS011;39812;52.430;16.936;2023-08-06T00:02:34;7.10;;;4.32;;
53903;SDS011;39812;52.430;16.936;2023-08-06T00:05:00;6.30;;;4.97;;
53903;SDS011;39812;52.430;16.936;2023-08-06T00:07:25;6.35;;;4.28;;
53903;SDS011;39812;52.430;16.936;2023-08-06T00:09:51;5.35;;;4.15;;
53903;SDS011;39812;52.430;16.936;2023-08-06T00:12:17;5.35;;;3.88;;
53903;SDS011;39812;52.430;16.936;2023-08-06T00:14:42;7.03;;;3.88;;
53903;SDS011;39812;52.430;16.936;2023-08-06T00:17:08;6.78;;;4.55;;
53903;SDS011;39812;52.430;16.936;2023-08-06T00:19:34;5.15;;;4.30;;
53903;SDS011;39812;52.430;16.936;2023-08-06T00:21:59;7.90;;;4.35;;
53903;SDS011;39812;52.430;16.936;2023-08-06T00:24:26;7.25;;;3.88;;
53903;SDS011;39812;52.430;16.936;2023-08-06T00:26:52;8.43;;;4.20;;
53903;SDS011;39812;52.430;16.936;2023-08-06T00:29:18;9.68;;;5.05;;
53903;SDS011;39812;52.430;16.936;2023-08-06T00:31:43;8.88;;;4.53;;
53903;SDS011;39812;52.430;16.936;2023-08-06T00:34:09;8.45;;;5.15;;
53903;SDS011;39812;52.430;16.936;2023-08-06T00:36:35;10.43;;;4.78;;
53903;SDS011;39812;52.430;16.936;2023-08-06T00:39:00;7.40;;;4.57;;
53903;SDS011;39812;52.430;16.936;2023-08-06T00:41:26;8.30;;;4.65;;
53903;SDS011;39812;52.430;16.936;2023-08-06T00:43:51;6.32;;;4.57;;
53903;SDS011;39812;52.430;16.936;2023-08-06T00:46:17;5.88;;;4.32;;
53903;SDS011;39812;52.430;16.936;2023-08-06T00:48:43;5.85;;;4.07;;
53903;SDS011;39812;52.430;16.936;2023-08-06T00:51:09;7.20;;;4.82;;
53903;SDS011;39812;52.430;16.936;2023-08-06T00:53:35;6.35;;;4.45;;
53903;SDS011;39812;52.430;16.936;2023-08-06T00:56:02;9.68;;;5.18;;
53903;SDS011;39812;52.430;16.936;2023-08-06T00:58:28;8.13;;;5.10;;
53903;SDS011;39812;52.430;16.936;2023-08-06T01:00:54;9.15;;;4.43;;
53903;SDS011;39812;52.430;16.936;2023-08-06T01:03:20;10.18;;;4.38;;
53903;SDS011;39812;52.430;16.936;2023-08-06T01:05:45;8.13;;;5.03;;
53903;SDS011;39812;52.430;16.936;2023-08-06T01:08:28;7.53;;;5.22;;
53903;SDS011;39812;52.430;16.936;2023-08-06T01:13:46;9.60;;;4.68;;
53903;SDS011;39812;52.430;16.936;2023-08-06T01:16:17;8.75;;;5.35;;
53903;SDS011;39812;52.430;16.936;2023-08-06T01:18:46;10.82;;;5.35;;
53903;SDS011;39812;52.430;16.936;2023-08-06T01:21:14;6.03;;;4.40;;
53903;SDS011;39812;52.430;16.936;2023-08-06T01:23:40;7.97;;;4.95;;
53903;SDS011;39812;52.430;16.936;2023-08-06T01:31:21;8.38;;;5.80;;
53903;SDS011;39812;52.430;16.936;2023-08-06T01:33:51;8.82;;;5.15;;
53903;SDS011;39812;52.430;16.936;2023-08-06T01:36:21;6.63;;;4.50;;
53903;SDS011;39812;52.430;16.936;2023-08-06T01:38:47;6.40;;;4.68;;
53903;SDS011;39812;52.430;16.936;2023-08-06T01:41:13;8.88;;;4.88;;
53903;SDS011;39812;52.430;16.936;2023-08-06T01:43:39;8.45;;;4.60;;
53903;SDS011;39812;52.430;16.936;2023-08-06T01:46:05;6.18;;;4.18;;
53903;SDS011;39812;52.430;16.936;2023-08-06T01:48:30;6.03;;;4.38;;
53903;SDS011;39812;52.430;16.936;2023-08-06T01:50:56;6.28;;;4.10;;
53903;SDS011;39812;52.430;16.936;2023-08-06T01:53:22;7.55;;;3.80;;
53903;SDS011;39812;52.430;16.936;2023-08-06T01:55:50;7.40;;;3.55;;
53903;SDS011;39812;52.430;16.936;2023-08-06T01:58:16;5.95;;;3.70;;
53903;SDS011;39812;52.430;16.936;2023-08-06T02:00:41;5.47;;;3.42;;
53903;SDS011;39812;52.430;16.936;2023-08-06T02:03:07;5.93;;;3.40;;
53903;SDS011;39812;52.430;16.936;2023-08-06T02:05:33;7.13;;;3.45;;
53903;SDS011;39812;52.430;16.936;2023-08-06T02:07:59;4.72;;;3.60;;
53903;SDS011;39812;52.430;16.936;2023-08-06T02:10:24;4.55;;;3.33;;
53903;SDS011;39812;52.430;16.936;2023-08-06T02:12:50;4.82;;;3.30;;
53903;SDS011;39812;52.430;16.936;2023-08-06T02:15:16;4.75;;;3.45;;
53903;SDS011;39812;52.430;16.936;2023-08-06T02:17:41;4.43;;;3.30;;
53903;SDS011;39812;52.430;16.936;2023-08-06T02:20:07;4.03;;;2.90;;
53903;SDS011;39812;52.430;16.936;2023-08-06T02:22:33;4.95;;;2.83;;
53903;SDS011;39812;52.430;16.936;2023-08-06T02:24:58;6.05;;;3.55;;
53903;SDS011;39812;52.430;16.936;2023-08-06T02:27:24;4.45;;;2.97;;
53903;SDS011;39812;52.430;16.936;2023-08-06T02:29:50;4.20;;;3.08;;
53903;SDS011;39812;52.430;16.936;2023-08-06T02:32:15;3.60;;;2.80;;
53903;SDS011;39812;52.430;16.936;2023-08-06T02:34:41;4.05;;;2.97;;
53903;SDS011;39812;52.430;16.936;2023-08-06T02:37:07;4.10;;;2.90;;
53903;SDS011;39812;52.430;16.936;2023-08-06T02:39:32;6.07;;;2.85;;
53903;SDS011;39812;52.430;16.936;2023-08-06T02:41:59;4.32;;;2.45;;
53903;SDS011;39812;52.430;16.936;2023-08-06T02:44:28;4.20;;;3.10;;
53903;SDS011;39812;52.430;16.936;2023-08-06T02:46:53;4.18;;;2.83;;
53903;SDS011;39812;52.430;16.936;2023-08-06T02:49:19;4.63;;;2.83;;
53903;SDS011;39812;52.430;16.936;2023-08-06T02:51:45;3.70;;;2.63;;
53903;SDS011;39812;52.430;16.936;2023-08-06T02:54:10;4.30;;;2.88;;
53903;SDS011;39812;52.430;16.936;2023-08-06T02:56:36;4.32;;;2.55;;
53903;SDS011;39812;52.430;16.936;2023-08-06T02:59:02;3.88;;;2.42;;
53903;SDS011;39812;52.430;16.936;2023-08-06T03:01:27;3.70;;;2.50;;
53903;SDS011;39812;52.430;16.936;2023-08-06T03:03:53;3.35;;;2.40;;
53903;SDS011;39812;52.430;16.936;2023-08-06T03:06:19;3.83;;;2.67;;
53903;SDS011;39812;52.430;16.936;2023-08-06T03:08:44;3.70;;;2.55;;
53903;SDS011;39812;52.430;16.936;2023-08-06T03:11:10;3.17;;;2.03;;
53903;SDS011;39812;52.430;16.936;2023-08-06T03:13:36;5.70;;;3.22;;
53903;SDS011;39812;52.430;16.936;2023-08-06T03:16:01;4.55;;;2.53;;
53903;SDS011;39812;52.430;16.936;2023-08-06T03:18:27;4.32;;;2.85;;
53903;SDS011;39812;52.430;16.936;2023-08-06T03:20:53;3.80;;;2.75;;
53903;SDS011;39812;52.430;16.936;2023-08-06T03:23:19;3.65;;;2.58;;
53903;SDS011;39812;52.430;16.936;2023-08-06T03:25:45;4.22;;;2.65;;
53903;SDS011;39812;52.430;16.936;2023-08-06T03:28:11;4.00;;;2.17;;
53903;SDS011;39812;52.430;16.936;2023-08-06T03:30:37;3.35;;;2.25;;
53903;SDS011;39812;52.430;16.936;2023-08-06T03:33:03;4.07;;;2.50;;
53903;SDS011;39812;52.430;16.936;2023-08-06T03:35:28;4.30;;;2.35;;
53903;SDS011;39812;52.430;16.936;2023-08-06T03:37:54;4.30;;;2.30;;
53903;SDS011;39812;52.430;16.936;2023-08-06T03:40:20;3.80;;;2.10;;
53903;SDS011;39812;52.430;16.936;2023-08-06T03:42:45;3.35;;;2.30;;
53903;SDS011;39812;52.430;16.936;2023-08-06T03:45:11;3.83;;;2.33;;
53903;SDS011;39812;52.430;16.936;2023-08-06T03:47:37;3.33;;;2.28;;
53903;SDS011;39812;52.430;16.936;2023-08-06T03:50:02;3.88;;;2.00;;
53903;SDS011;39812;52.430;16.936;2023-08-06T03:52:28;3.22;;;2.22;;
53903;SDS011;39812;52.430;16.936;2023-08-06T03:54:54;3.28;;;2.00;;
53903;SDS011;39812;52.430;16.936;2023-08-06T03:57:19;5.78;;;2.40;;
53903;SDS011;39812;52.430;16.936;2023-08-06T03:59:45;3.30;;;2.10;;
53903;SDS011;39812;52.430;16.936;2023-08-06T04:02:10;3.70;;;1.92;;
53903;SDS011;39812;52.430;16.936;2023-08-06T04:04:36;2.47;;;1.48;;
53903;SDS011;39812;52.430;16.936;2023-08-06T04:07:02;2.40;;;1.90;;
53903;SDS011;39812;52.430;16.936;2023-08-06T04:09:28;2.92;;;1.85;;
53903;SDS011;39812;52.430;16.936;2023-08-06T04:11:54;2.42;;;1.38;;
53903;SDS011;39812;52.430;16.936;2023-08-06T04:14:20;2.67;;;1.83;;
53903;SDS011;39812;52.430;16.936;2023-08-06T04:16:46;2.63;;;1.73;;
53903;SDS011;39812;52.430;16.936;2023-08-06T04:19:11;2.80;;;1.63;;
53903;SDS011;39812;52.430;16.936;2023-08-06T04:21:37;3.00;;;1.67;;
53903;SDS011;39812;52.430;16.936;2023-08-06T04:24:03;2.55;;;1.67;;
53903;SDS011;39812;52.430;16.936;2023-08-06T04:26:28;2.60;;;1.65;;
53903;SDS011;39812;52.430;16.936;2023-08-06T04:28:54;3.75;;;1.75;;
53903;SDS011;39812;52.430;16.936;2023-08-06T04:31:21;2.00;;;1.42;;
53903;SDS011;39812;52.430;16.936;2023-08-06T04:33:47;2.85;;;1.60;;
53903;SDS011;39812;52.430;16.936;2023-08-06T04:36:12;2.53;;;2.00;;
53903;SDS011;39812;52.430;16.936;2023-08-06T04:38:38;3.13;;;1.90;;
53903;SDS011;39812;52.430;16.936;2023-08-06T04:41:06;2.22;;;1.50;;
53903;SDS011;39812;52.430;16.936;2023-08-06T04:43:31;2.17;;;1.50;;
53903;SDS011;39812;52.430;16.936;2023-08-06T04:45:57;3.50;;;1.40;;
53903;SDS011;39812;52.430;16.936;2023-08-06T04:48:23;3.83;;;1.67;;
53903;SDS011;39812;52.430;16.936;2023-08-06T04:50:49;2.25;;;1.48;;
53903;SDS011;39812;52.430;16.936;2023-08-06T04:53:16;1.98;;;1.17;;
53903;SDS011;39812;52.430;16.936;2023-08-06T04:55:41;1.70;;;1.30;;
53903;SDS011;39812;52.430;16.936;2023-08-06T04:58:08;3.15;;;1.50;;
53903;SDS011;39812;52.430;16.936;2023-08-06T05:00:35;3.00;;;1.45;;
53903;SDS011;39812;52.430;16.936;2023-08-06T05:03:01;2.67;;;1.92;;
53903;SDS011;39812;52.430;16.936;2023-08-06T05:05:26;2.25;;;1.73;;
53903;SDS011;39812;52.430;16.936;2023-08-06T05:07:53;2.50;;;1.20;;
53903;SDS011;39812;52.430;16.936;2023-08-06T05:10:20;2.47;;;1.60;;
53903;SDS011;39812;52.430;16.936;2023-08-06T05:12:46;2.53;;;1.55;;
53903;SDS011;39812;52.430;16.936;2023-08-06T05:15:12;2.08;;;1.58;;
53903;SDS011;39812;52.430;16.936;2023-08-06T05:17:37;2.10;;;1.40;;
53903;SDS011;39812;52.430;16.936;2023-08-06T05:20:03;2.80;;;1.48;;
53903;SDS011;39812;52.430;16.936;2023-08-06T05:22:29;2.60;;;1.30;;
53903;SDS011;39812;52.430;16.936;2023-08-06T05:24:55;2.20;;;1.45;;
53903;SDS011;39812;52.430;16.936;2023-08-06T05:27:20;1.95;;;1.48;;
53903;SDS011;39812;52.430;16.936;2023-08-06T05:29:47;2.15;;;1.27;;
53903;SDS011;39812;52.430;16.936;2023-08-06T05:32:13;3.75;;;1.45;;
53903;SDS011;39812;52.430;16.936;2023-08-06T05:34:39;2.35;;;1.05;;
53903;SDS011;39812;52.430;16.936;2023-08-06T05:37:04;1.27;;;0.95;;
53903;SDS011;39812;52.430;16.936;2023-08-06T05:39:30;1.88;;;1.10;;
53903;SDS011;39812;52.430;16.936;2023-08-06T05:41:56;1.77;;;1.30;;
53903;SDS011;39812;52.430;16.936;2023-08-06T05:44:22;1.35;;;0.98;;
53903;SDS011;39812;52.430;16.936;2023-08-06T05:46:48;2.17;;;0.80;;
53903;SDS011;39812;52.430;16.936;2023-08-06T05:49:14;1.60;;;0.85;;
53903;SDS011;39812;52.430;16.936;2023-08-06T05:51:40;0.98;;;0.75;;
53903;SDS011;39812;52.430;16.936;2023-08-06T05:54:06;1.63;;;0.82;;
53903;SDS011;39812;52.430;16.936;2023-08-06T05:56:32;1.40;;;1.00;;
53903;SDS011;39812;52.430;16.936;2023-08-06T05:58:57;1.00;;;0.85;;
53903;SDS011;39812;52.430;16.936;2023-08-06T06:01:23;1.75;;;1.10;;
53903;SDS011;39812;52.430;16.936;2023-08-06T06:03:48;1.33;;;1.02;;
53903;SDS011;39812;52.430;16.936;2023-08-06T06:06:14;3.05;;;1.45;;
53903;SDS011;39812;52.430;16.936;2023-08-06T06:08:41;1.85;;;0.93;;
53903;SDS011;39812;52.430;16.936;2023-08-06T06:11:06;2.00;;;1.23;;
53903;SDS011;39812;52.430;16.936;2023-08-06T06:13:32;1.90;;;1.30;;
53903;SDS011;39812;52.430;16.936;2023-08-06T06:15:57;1.92;;;1.55;;
53903;SDS011;39812;52.430;16.936;2023-08-06T06:18:23;3.75;;;1.08;;
53903;SDS011;39812;52.430;16.936;2023-08-06T06:20:48;1.23;;;0.98;;
53903;SDS011;39812;52.430;16.936;2023-08-06T06:23:14;1.85;;;1.27;;
53903;SDS011;39812;52.430;16.936;2023-08-06T06:25:47;1.05;;;0.95;;
53903;SDS011;39812;52.430;16.936;2023-08-06T06:28:13;1.50;;;1.00;;
53903;SDS011;39812;52.430;16.936;2023-08-06T06:30:40;1.35;;;1.13;;
53903;SDS011;39812;52.430;16.936;2023-08-06T06:33:07;1.58;;;0.90;;
53903;SDS011;39812;52.430;16.936;2023-08-06T06:35:32;1.95;;;1.65;;
53903;SDS011;39812;52.430;16.936;2023-08-06T06:37:58;1.27;;;0.80;;
53903;SDS011;39812;52.430;16.936;2023-08-06T06:40:24;1.20;;;0.90;;
53903;SDS011;39812;52.430;16.936;2023-08-06T06:42:50;1.38;;;0.80;;
53903;SDS011;39812;52.430;16.936;2023-08-06T06:45:16;2.22;;;1.02;;
53903;SDS011;39812;52.430;16.936;2023-08-06T06:47:41;2.28;;;0.77;;
53903;SDS011;39812;52.430;16.936;2023-08-06T06:50:07;1.13;;;0.82;;
53903;SDS011;39812;52.430;16.936;2023-08-06T06:52:33;1.52;;;1.10;;
53903;SDS011;39812;52.430;16.936;2023-08-06T06:54:59;1.80;;;1.05;;
53903;SDS011;39812;52.430;16.936;2023-08-06T06:57:24;1.08;;;0.80;;
53903;SDS011;39812;52.430;16.936;2023-08-06T06:59:50;3.67;;;1.30;;
53903;SDS011;39812;52.430;16.936;2023-08-06T07:02:15;1.73;;;1.08;;
53903;SDS011;39812;52.430;16.936;2023-08-06T07:04:41;2.08;;;0.80;;
53903;SDS011;39812;52.430;16.936;2023-08-06T07:07:06;2.33;;;1.00;;
53903;SDS011;39812;52.430;16.936;2023-08-06T07:09:32;1.30;;;0.90;;
53903;SDS011;39812;52.430;16.936;2023-08-06T07:11:58;1.20;;;1.05;;
53903;SDS011;39812;52.430;16.936;2023-08-06T07:14:25;0.95;;;0.75;;
53903;SDS011;39812;52.430;16.936;2023-08-06T07:16:51;1.33;;;0.90;;
53903;SDS011;39812;52.430;16.936;2023-08-06T07:19:16;1.15;;;0.80;;
53903;SDS011;39812;52.430;16.936;2023-08-06T07:21:42;1.00;;;0.60;;
53903;SDS011;39812;52.430;16.936;2023-08-06T07:24:08;0.88;;;0.80;;
53903;SDS011;39812;52.430;16.936;2023-08-06T07:26:33;1.10;;;0.80;;
53903;SDS011;39812;52.430;16.936;2023-08-06T07:28:59;1.23;;;0.88;;
53903;SDS011;39812;52.430;16.936;2023-08-06T07:31:24;0.77;;;0.60;;
53903;SDS011;39812;52.430;16.936;2023-08-06T07:33:50;1.23;;;0.90;;
53903;SDS011;39812;52.430;16.936;2023-08-06T07:36:16;0.90;;;0.55;;
53903;SDS011;39812;52.430;16.936;2023-08-06T07:38:41;1.60;;;0.75;;
53903;SDS011;39812;52.430;16.936;2023-08-06T07:41:08;0.77;;;0.60;;
53903;SDS011;39812;52.430;16.936;2023-08-06T07:43:34;1.48;;;0.93;;
53903;SDS011;39812;52.430;16.936;2023-08-06T07:46:00;1.05;;;0.70;;
53903;SDS011;39812;52.430;16.936;2023-08-06T07:48:27;1.38;;;1.00;;
53903;SDS011;39812;52.430;16.936;2023-08-06T07:50:56;1.50;;;0.93;;
53903;SDS011;39812;52.430;16.936;2023-08-06T07:53:22;1.20;;;0.80;;
53903;SDS011;39812;52.430;16.936;2023-08-06T07:55:52;1.35;;;0.75;;
53903;SDS011;39812;52.430;16.936;2023-08-06T07:58:19;0.75;;;0.60;;
53903;SDS011;39812;52.430;16.936;2023-08-06T08:00:45;1.08;;;0.68;;
53903;SDS011;39812;52.430;16.936;2023-08-06T08:03:14;2.05;;;1.08;;
53903;SDS011;39812;52.430;16.936;2023-08-06T08:05:41;2.63;;;0.90;;
53903;SDS011;39812;52.430;16.936;2023-08-06T08:08:10;1.17;;;0.80;;
53903;SDS011;39812;52.430;16.936;2023-08-06T08:10:35;1.17;;;0.63;;
53903;SDS011;39812;52.430;16.936;2023-08-06T08:13:02;1.23;;;0.90;;
53903;SDS011;39812;52.430;16.936;2023-08-06T08:15:29;0.90;;;0.57;;
53903;SDS011;39812;52.430;16.936;2023-08-06T08:17:56;0.75;;;0.70;;
53903;SDS011;39812;52.430;16.936;2023-08-06T08:20:22;1.13;;;0.70;;
53903;SDS011;39812;52.430;16.936;2023-08-06T08:22:47;2.95;;;0.65;;
53903;SDS011;39812;52.430;16.936;2023-08-06T08:25:13;1.85;;;0.60;;
53903;SDS011;39812;52.430;16.936;2023-08-06T08:27:40;1.77;;;0.93;;
53903;SDS011;39812;52.430;16.936;2023-08-06T08:30:06;1.05;;;0.52;;
53903;SDS011;39812;52.430;16.936;2023-08-06T08:32:32;3.40;;;0.77;;
53903;SDS011;39812;52.430;16.936;2023-08-06T08:34:57;1.00;;;0.80;;
53903;SDS011;39812;52.430;16.936;2023-08-06T08:37:23;1.67;;;0.85;;
53903;SDS011;39812;52.430;16.936;2023-08-06T08:39:49;0.73;;;0.60;;
53903;SDS011;39812;52.430;16.936;2023-08-06T08:42:15;1.33;;;0.90;;
53903;SDS011;39812;52.430;16.936;2023-08-06T08:44:41;1.30;;;0.73;;
53903;SDS011;39812;52.430;16.936;2023-08-06T08:47:08;0.90;;;0.60;;
53903;SDS011;39812;52.430;16.936;2023-08-06T08:49:35;1.50;;;0.88;;
53903;SDS011;39812;52.430;16.936;2023-08-06T08:52:01;1.35;;;0.95;;
53903;SDS011;39812;52.430;16.936;2023-08-06T08:54:28;0.63;;;0.45;;
53903;SDS011;39812;52.430;16.936;2023-08-06T08:56:56;1.67;;;0.70;;
53903;SDS011;39812;52.430;16.936;2023-08-06T08:59:22;1.27;;;0.90;;
53903;SDS011;39812;52.430;16.936;2023-08-06T09:01:49;3.25;;;1.27;;
53903;SDS011;39812;52.430;16.936;2023-08-06T09:04:16;1.42;;;0.90;;
53903;SDS011;39812;52.430;16.936;2023-08-06T09:06:46;1.95;;;0.60;;
53903;SDS011;39812;52.430;16.936;2023-08-06T09:09:25;0.80;;;0.55;;
53903;SDS011;39812;52.430;16.936;2023-08-06T09:11:53;1.10;;;0.70;;
53903;SDS011;39812;52.430;16.936;2023-08-06T09:14:24;0.73;;;0.45;;
53903;SDS011;39812;52.430;16.936;2023-08-06T09:16:51;0.95;;;0.60;;
53903;SDS011;39812;52.430;16.936;2023-08-06T09:19:17;0.30;;;0.30;;
53903;SDS011;39812;52.430;16.936;2023-08-06T09:21:43;0.70;;;0.50;;
53903;SDS011;39812;52.430;16.936;2023-08-06T09:24:09;0.50;;;0.50;;
53903;SDS011;39812;52.430;16.936;2023-08-06T09:26:38;0.73;;;0.45;;
53903;SDS011;39812;52.430;16.936;2023-08-06T09:29:04;0.55;;;0.47;;
53903;SDS011;39812;52.430;16.936;2023-08-06T09:31:32;1.20;;;0.50;;
53903;SDS011;39812;52.430;16.936;2023-08-06T09:33:59;0.68;;;0.40;;
53903;SDS011;39812;52.430;16.936;2023-08-06T09:36:26;1.02;;;0.50;;
53903;SDS011;39812;52.430;16.936;2023-08-06T09:38:52;1.13;;;0.50;;
53903;SDS011;39812;52.430;16.936;2023-08-06T09:41:27;0.75;;;0.50;;
53903;SDS011;39812;52.430;16.936;2023-08-06T09:43:53;1.85;;;0.70;;
53903;SDS011;39812;52.430;16.936;2023-08-06T09:46:19;0.63;;;0.50;;
53903;SDS011;39812;52.430;16.936;2023-08-06T09:48:48;0.82;;;0.50;;
53903;SDS011;39812;52.430;16.936;2023-08-06T09:51:15;0.82;;;0.57;;
53903;SDS011;39812;52.430;16.936;2023-08-06T09:53:42;0.60;;;0.32;;
53903;SDS011;39812;52.430;16.936;2023-08-06T09:56:09;0.50;;;0.40;;
53903;SDS011;39812;52.430;16.936;2023-08-06T09:58:35;0.28;;;0.28;;
53903;SDS011;39812;52.430;16.936;2023-08-06T10:01:03;0.38;;;0.30;;
53903;SDS011;39812;52.430;16.936;2023-08-06T10:03:29;0.50;;;0.40;;
53903;SDS011;39812;52.430;16.936;2023-08-06T10:05:57;0.90;;;0.43;;
53903;SDS011;39812;52.430;16.936;2023-08-06T10:08:23;0.75;;;0.40;;
53903;SDS011;39812;52.430;16.936;2023-08-06T10:10:48;1.85;;;0.50;;
53903;SDS011;39812;52.430;16.936;2023-08-06T10:13:14;1.45;;;0.50;;
53903;SDS011;39812;52.430;16.936;2023-08-06T10:15:43;0.57;;;0.40;;
53903;SDS011;39812;52.430;16.936;2023-08-06T10:18:09;0.55;;;0.50;;
53903;SDS011;39812;52.430;16.936;2023-08-06T10:20:34;0.47;;;0.35;;
53903;SDS011;39812;52.430;16.936;2023-08-06T10:23:04;2.53;;;0.50;;
53903;SDS011;39812;52.430;16.936;2023-08-06T10:25:34;1.85;;;0.60;;
53903;SDS011;39812;52.430;16.936;2023-08-06T10:28:08;0.55;;;0.40;;
53903;SDS011;39812;52.430;16.936;2023-08-06T10:30:44;1.60;;;0.63;;
53903;SDS011;39812;52.430;16.936;2023-08-06T10:33:13;0.40;;;0.40;;
53903;SDS011;39812;52.430;16.936;2023-08-06T10:35:48;0.75;;;0.38;;
53903;SDS011;39812;52.430;16.936;2023-08-06T10:38:18;0.90;;;0.60;;
53903;SDS011;39812;52.430;16.936;2023-08-06T10:43:26;1.25;;;0.60;;
53903;SDS011;39812;52.430;16.936;2023-08-06T10:45:53;0.90;;;0.20;;
53903;SDS011;39812;52.430;16.936;2023-08-06T10:48:29;0.75;;;0.40;;
53903;SDS011;39812;52.430;16.936;2023-08-06T10:51:12;2.22;;;0.77;;
53903;SDS011;39812;52.430;16.936;2023-08-06T10:53:41;1.27;;;0.43;;
53903;SDS011;39812;52.430;16.936;2023-08-06T10:56:14;2.47;;;0.50;;
53903;SDS011;39812;52.430;16.936;2023-08-06T10:58:41;1.00;;;0.57;;
53903;SDS011;39812;52.430;16.936;2023-08-06T11:01:07;1.08;;;0.50;;
53903;SDS011;39812;52.430;16.936;2023-08-06T11:03:33;1.38;;;0.52;;
53903;SDS011;39812;52.430;16.936;2023-08-06T11:05:59;1.23;;;0.40;;
53903;SDS011;39812;52.430;16.936;2023-08-06T11:08:29;1.40;;;0.50;;
53903;SDS011;39812;52.430;16.936;2023-08-06T11:11:07;0.20;;;0.20;;
53903;SDS011;39812;52.430;16.936;2023-08-06T11:13:36;0.40;;;0.35;;
53903;SDS011;39812;52.430;16.936;2023-08-06T11:16:03;1.70;;;0.73;;
53903;SDS011;39812;52.430;16.936;2023-08-06T11:18:29;1.65;;;0.40;;
53903;SDS011;39812;52.430;16.936;2023-08-06T11:20:55;2.83;;;0.50;;
53903;SDS011;39812;52.430;16.936;2023-08-06T11:23:23;0.50;;;0.30;;
53903;SDS011;39812;52.430;16.936;2023-08-06T11:25:54;0.98;;;0.40;;
53903;SDS011;39812;52.430;16.936;2023-08-06T11:28:21;0.70;;;0.40;;
53903;SDS011;39812;52.430;16.936;2023-08-06T11:30:47;0.98;;;0.40;;
53903;SDS011;39812;52.430;16.936;2023-08-06T11:33:13;2.83;;;0.60;;
53903;SDS011;39812;52.430;16.936;2023-08-06T11:35:39;0.68;;;0.43;;
53903;SDS011;39812;52.430;16.936;2023-08-06T11:38:06;1.15;;;0.85;;
53903;SDS011;39812;52.430;16.936;2023-08-06T11:40:32;1.48;;;0.70;;
53903;SDS011;39812;52.430;16.936;2023-08-06T11:42:58;1.98;;;0.60;;
53903;SDS011;39812;52.430;16.936;2023-08-06T11:45:24;1.60;;;0.68;;
53903;SDS011;39812;52.430;16.936;2023-08-06T11:47:50;8.38;;;0.40;;
53903;SDS011;39812;52.430;16.936;2023-08-06T11:50:24;0.82;;;0.40;;
53903;SDS011;39812;52.430;16.936;2023-08-06T11:52:57;0.55;;;0.35;;
53903;SDS011;39812;52.430;16.936;2023-08-06T11:55:25;0.45;;;0.40;;
53903;SDS011;39812;52.430;16.936;2023-08-06T11:57:53;1.00;;;0.47;;
53903;SDS011;39812;52.430;16.936;2023-08-06T12:00:19;1.10;;;0.52;;
53903;SDS011;39812;52.430;16.936;2023-08-06T12:02:47;0.93;;;0.57;;
53903;SDS011;39812;52.430;16.936;2023-08-06T12:05:16;1.00;;;0.57;;
53903;SDS011;39812;52.430;16.936;2023-08-06T12:07:47;0.98;;;0.50;;
53903;SDS011;39812;52.430;16.936;2023-08-06T12:10:14;0.43;;;0.35;;
53903;SDS011;39812;52.430;16.936;2023-08-06T12:12:40;0.80;;;0.50;;
53903;SDS011;39812;52.430;16.936;2023-08-06T12:15:07;1.67;;;0.50;;
53903;SDS011;39812;52.430;16.936;2023-08-06T12:17:34;0.95;;;0.60;;
53903;SDS011;39812;52.430;16.936;2023-08-06T12:20:00;1.35;;;0.50;;
53903;SDS011;39812;52.430;16.936;2023-08-06T12:22:26;0.40;;;0.35;;
53903;SDS011;39812;52.430;16.936;2023-08-06T12:24:52;1.75;;;0.40;;
53903;SDS011;39812;52.430;16.936;2023-08-06T12:27:17;3.22;;;0.52;;
53903;SDS011;39812;52.430;16.936;2023-08-06T12:29:45;0.55;;;0.40;;
53903;SDS011;39812;52.430;16.936;2023-08-06T12:32:12;2.30;;;0.43;;
53903;SDS011;39812;52.430;16.936;2023-08-06T12:34:39;0.98;;;0.40;;
53903;SDS011;39812;52.430;16.936;2023-08-06T12:37:05;1.52;;;0.50;;
53903;SDS011;39812;52.430;16.936;2023-08-06T12:39:34;0.47;;;0.43;;
53903;SDS011;39812;52.430;16.936;2023-08-06T12:42:01;1.08;;;0.60;;
53903;SDS011;39812;52.430;16.936;2023-08-06T12:44:28;1.10;;;0.50;;
53903;SDS011;39812;52.430;16.936;2023-08-06T12:46:54;0.85;;;0.60;;
53903;SDS011;39812;52.430;16.936;2023-08-06T12:49:19;1.10;;;0.60;;
53903;SDS011;39812;52.430;16.936;2023-08-06T12:51:51;1.55;;;0.40;;
53903;SDS011;39812;52.430;16.936;2023-08-06T12:54:18;0.47;;;0.30;;
53903;SDS011;39812;52.430;16.936;2023-08-06T12:56:45;1.63;;;0.60;;
53903;SDS011;39812;52.430;16.936;2023-08-06T12:59:11;0.57;;;0.32;;
53903;SDS011;39812;52.430;16.936;2023-08-06T13:01:37;1.23;;;0.47;;
53903;SDS011;39812;52.430;16.936;2023-08-06T13:04:03;1.50;;;0.60;;
53903;SDS011;39812;52.430;16.936;2023-08-06T13:06:29;1.50;;;0.50;;
53903;SDS011;39812;52.430;16.936;2023-08-06T13:08:55;0.70;;;0.47;;
53903;SDS011;39812;52.430;16.936;2023-08-06T13:11:22;0.30;;;0.30;;
53903;SDS011;39812;52.430;16.936;2023-08-06T13:13:47;1.33;;;0.40;;
53903;SDS011;39812;52.430;16.936;2023-08-06T13:16:13;0.90;;;0.60;;
53903;SDS011;39812;52.430;16.936;2023-08-06T13:18:39;0.57;;;0.40;;
53903;SDS011;39812;52.430;16.936;2023-08-06T13:21:04;1.65;;;0.70;;
53903;SDS011;39812;52.430;16.936;2023-08-06T13:23:30;0.60;;;0.40;;
53903;SDS011;39812;52.430;16.936;2023-08-06T13:25:55;0.88;;;0.50;;
53903;SDS011;39812;52.430;16.936;2023-08-06T13:28:21;0.38;;;0.22;;
53903;SDS011;39812;52.430;16.936;2023-08-06T13:30:47;1.85;;;0.30;;
53903;SDS011;39812;52.430;16.936;2023-08-06T13:33:12;1.17;;;0.43;;
53903;SDS011;39812;52.430;16.936;2023-08-06T13:35:38;1.88;;;0.50;;
53903;SDS011;39812;52.430;16.936;2023-08-06T13:38:04;0.43;;;0.40;;
53903;SDS011;39812;52.430;16.936;2023-08-06T13:40:32;0.45;;;0.32;;
53903;SDS011;39812;52.430;16.936;2023-08-06T13:42:58;2.17;;;0.60;;
53903;SDS011;39812;52.430;16.936;2023-08-06T13:45:24;1.58;;;0.63;;
53903;SDS011;39812;52.430;16.936;2023-08-06T13:47:50;0.73;;;0.60;;
53903;SDS011;39812;52.430;16.936;2023-08-06T13:50:16;1.75;;;0.60;;
53903;SDS011;39812;52.430;16.936;2023-08-06T13:52:42;1.38;;;0.50;;
53903;SDS011;39812;52.430;16.936;2023-08-06T13:55:07;0.93;;;0.60;;
53903;SDS011;39812;52.430;16.936;2023-08-06T13:57:36;1.00;;;0.50;;
53903;SDS011;39812;52.430;16.936;2023-08-06T14:00:02;0.98;;;0.60;;
53903;SDS011;39812;52.430;16.936;2023-08-06T14:02:28;1.20;;;0.50;;
53903;SDS011;39812;52.430;16.936;2023-08-06T14:04:54;1.73;;;0.60;;
53903;SDS011;39812;52.430;16.936;2023-08-06T14:07:20;1.75;;;0.73;;
53903;SDS011;39812;52.430;16.936;2023-08-06T14:09:45;0.60;;;0.50;;
53903;SDS011;39812;52.430;16.936;2023-08-06T14:12:12;4.68;;;0.50;;
53903;SDS011;39812;52.430;16.936;2023-08-06T14:14:38;1.20;;;0.60;;
53903;SDS011;39812;52.430;16.936;2023-08-06T14:17:05;0.57;;;0.40;;
53903;SDS011;39812;52.430;16.936;2023-08-06T14:19:30;0.88;;;0.55;;
53903;SDS011;39812;52.430;16.936;2023-08-06T14:21:56;0.93;;;0.50;;
53903;SDS011;39812;52.430;16.936;2023-08-06T14:24:22;0.40;;;0.40;;
53903;SDS011;39812;52.430;16.936;2023-08-06T14:26:48;0.52;;;0.40;;
53903;SDS011;39812;52.430;16.936;2023-08-06T14:29:14;0.47;;;0.47;;
53903;SDS011;39812;52.430;16.936;2023-08-06T14:31:40;0.55;;;0.40;;
53903;SDS011;39812;52.430;16.936;2023-08-06T14:34:06;0.77;;;0.43;;
53903;SDS011;39812;52.430;16.936;2023-08-06T14:36:32;1.52;;;0.70;;
53903;SDS011;39812;52.430;16.936;2023-08-06T14:38:57;1.00;;;0.65;;